createdAt,value
2022-10-21T00:00:33.080Z,15.56
2022-10-21T00:03:22.201Z,15.45
2022-10-21T00:06:11.179Z,15.38
2022-10-21T00:08:59.177Z,15.28
2022-10-21T00:11:47.118Z,15.22
2022-10-21T00:14:36.388Z,15.12
2022-10-21T00:17:24.433Z,15.16
2022-10-21T00:20:13.609Z,15.19
2022-10-21T00:23:01.622Z,15.33
2022-10-21T00:25:49.533Z,15.26
2022-10-21T00:28:37.630Z,15.23
2022-10-21T00:31:27.573Z,15.21
2022-10-21T00:34:15.486Z,15.19
2022-10-21T00:37:03.457Z,15.23
2022-10-21T00:39:52.230Z,15.24
2022-10-21T00:42:44.037Z,15.30
2022-10-21T00:45:34.602Z,15.34
2022-10-21T00:48:32.701Z,15.35
2022-10-21T00:51:20.646Z,15.45
2022-10-21T00:54:09.689Z,15.39
2022-10-21T00:56:58.613Z,15.32
2022-10-21T00:59:50.715Z,15.31
2022-10-21T01:02:38.673Z,15.26
2022-10-21T01:05:28.730Z,15.31
2022-10-21T01:08:16.788Z,15.16
2022-10-21T01:11:06.460Z,15.21
2022-10-21T01:14:20.192Z,15.16
2022-10-21T01:17:20.940Z,15.13
2022-10-21T01:21:05.786Z,14.99
2022-10-21T01:24:24.272Z,14.72
2022-10-21T01:27:24.401Z,15.00
2022-10-21T01:30:21.093Z,14.96
2022-10-21T01:33:44.404Z,14.37
2022-10-21T01:36:40.949Z,14.87
2022-10-21T01:39:37.758Z,14.70
2022-10-21T01:42:32.889Z,14.68
2022-10-21T01:45:25.293Z,14.76
2022-10-21T01:48:18.929Z,14.70
2022-10-21T01:51:08.684Z,14.75
2022-10-21T01:54:03.567Z,14.86
2022-10-21T01:56:52.384Z,14.73
2022-10-21T01:59:44.022Z,14.80
2022-10-21T02:02:35.155Z,14.77
2022-10-21T02:05:28.337Z,14.80
2022-10-21T02:08:16.270Z,14.75
2022-10-21T02:11:09.907Z,14.70
2022-10-21T02:14:02.646Z,14.69
2022-10-21T02:16:51.936Z,14.61
2022-10-21T02:19:39.848Z,14.64
2022-10-21T02:22:29.329Z,14.52
2022-10-21T02:25:21.522Z,14.64
2022-10-21T02:28:13.738Z,14.52
2022-10-21T02:31:11.800Z,14.57
2022-10-21T02:34:05.118Z,14.44
2022-10-21T02:36:57.432Z,14.44
2022-10-21T02:39:51.583Z,14.45
2022-10-21T02:42:45.168Z,14.42
2022-10-21T02:45:35.683Z,14.53
2022-10-21T02:48:23.547Z,14.39
2022-10-21T02:51:12.099Z,14.46
2022-10-21T02:53:59.973Z,14.49
2022-10-21T02:56:47.825Z,14.47
2022-10-21T02:59:35.701Z,14.55
2022-10-21T03:02:24.931Z,14.61
2022-10-21T03:05:12.953Z,14.58
2022-10-21T03:08:00.828Z,14.54
2022-10-21T03:10:52.947Z,14.49
2022-10-21T03:13:41.402Z,14.40
2022-10-21T03:16:29.309Z,14.26
2022-10-21T03:19:18.503Z,14.31
2022-10-21T03:22:06.364Z,14.29
2022-10-21T03:24:54.483Z,14.29
2022-10-21T03:27:42.457Z,14.22
2022-10-21T03:30:30.355Z,13.90
2022-10-21T03:33:18.237Z,14.08
2022-10-21T03:36:08.055Z,14.07
2022-10-21T03:38:55.939Z,14.05
2022-10-21T03:41:43.804Z,14.05
2022-10-21T03:44:31.714Z,14.07
2022-10-21T03:47:19.672Z,14.07
2022-10-21T03:50:11.909Z,14.05
2022-10-21T03:53:13.678Z,14.06
2022-10-21T03:56:07.409Z,14.13
2022-10-21T03:58:58.647Z,14.12
2022-10-21T04:01:46.845Z,14.09
2022-10-21T04:04:34.764Z,14.06
2022-10-21T04:07:22.684Z,14.03
2022-10-21T04:10:12.960Z,14.02
2022-10-21T04:13:00.819Z,13.98
2022-10-21T04:15:48.733Z,13.96
2022-10-21T04:18:36.606Z,13.98
2022-10-21T04:21:24.497Z,13.95
2022-10-21T04:24:12.863Z,13.96
2022-10-21T04:27:02.103Z,13.94
2022-10-21T04:29:49.974Z,13.81
2022-10-21T04:32:38.284Z,13.98
2022-10-21T04:35:26.379Z,14.01
2022-10-21T04:38:14.272Z,13.96
2022-10-21T04:41:03.816Z,13.99
2022-10-21T04:43:53.060Z,13.98
2022-10-21T04:46:40.942Z,13.96
2022-10-21T04:49:28.827Z,13.95
2022-10-21T04:52:16.735Z,14.00
2022-10-21T04:55:05.539Z,13.95
2022-10-21T04:57:53.409Z,14.12
2022-10-21T05:00:42.746Z,14.14
2022-10-21T05:03:30.710Z,14.20
2022-10-21T05:06:18.607Z,14.21
2022-10-21T05:09:06.707Z,14.16
2022-10-21T05:11:54.578Z,14.23
2022-10-21T05:14:42.477Z,14.17
2022-10-21T05:17:31.691Z,14.46
2022-10-21T05:20:19.669Z,14.49
2022-10-21T05:23:07.545Z,14.41
2022-10-21T05:25:55.651Z,14.47
2022-10-21T05:28:43.536Z,14.58
2022-10-21T05:31:31.426Z,14.50
2022-10-21T05:34:20.871Z,14.49
2022-10-21T05:37:08.785Z,14.54
2022-10-21T05:39:56.679Z,14.40
2022-10-21T05:42:44.565Z,14.52
2022-10-21T05:45:32.556Z,14.54
2022-10-21T05:48:20.525Z,14.44
2022-10-21T05:51:09.775Z,14.50
2022-10-21T05:53:58.125Z,14.53
2022-10-21T05:56:46.038Z,14.54
2022-10-21T05:59:33.925Z,14.56
2022-10-21T06:02:21.781Z,14.46
2022-10-21T06:04:50.377Z,14.55
2022-10-21T06:07:19.552Z,14.24
2022-10-21T06:09:47.147Z,14.43
2022-10-21T06:12:14.761Z,14.54
2022-10-21T06:14:42.396Z,14.58
2022-10-21T06:17:10.016Z,14.65
2022-10-21T06:19:37.640Z,14.72
2022-10-21T06:22:05.265Z,14.76
2022-10-21T06:24:34.267Z,14.73
2022-10-21T06:27:01.892Z,14.87
2022-10-21T06:29:29.695Z,14.91
2022-10-21T06:31:57.287Z,14.93
2022-10-21T06:34:25.423Z,14.97
2022-10-21T06:36:53.160Z,14.96
2022-10-21T06:39:20.795Z,14.95
2022-10-21T06:41:49.884Z,15.05
2022-10-21T06:44:36.361Z,15.11
2022-10-21T06:47:03.988Z,15.04
2022-10-21T06:49:31.748Z,15.10
2022-10-21T06:51:59.345Z,15.09
2022-10-21T06:54:27.345Z,15.08
2022-10-21T06:56:56.510Z,15.15
2022-10-21T06:59:24.114Z,15.19
2022-10-21T07:02:00.525Z,15.31
2022-10-21T07:04:29.207Z,15.41
2022-10-21T07:06:56.826Z,15.45
2022-10-21T07:09:24.595Z,15.50
2022-10-21T07:11:52.319Z,15.59
2022-10-21T07:14:21.270Z,15.59
2022-10-21T07:16:49.225Z,15.73
2022-10-21T07:19:16.825Z,15.76
2022-10-21T07:21:44.537Z,15.77
2022-10-21T07:24:12.161Z,15.82
2022-10-21T07:26:40.522Z,15.78
2022-10-21T07:29:08.227Z,15.75
2022-10-21T07:31:39.189Z,15.80
2022-10-21T07:34:09.396Z,15.61
2022-10-21T07:36:39.813Z,15.76
2022-10-21T07:39:10.083Z,15.78
2022-10-21T07:41:40.323Z,15.69
2022-10-21T07:44:09.319Z,15.48
2022-10-21T07:46:40.782Z,15.59
2022-10-21T07:49:09.298Z,15.67
2022-10-21T07:51:38.004Z,15.44
2022-10-21T07:54:05.934Z,15.57
2022-10-21T07:56:36.211Z,15.42
2022-10-21T07:59:07.754Z,15.60
2022-10-21T08:01:40.382Z,15.67
2022-10-21T08:04:08.155Z,15.64
2022-10-21T08:06:35.829Z,15.64
2022-10-21T08:09:05.633Z,15.66
2022-10-21T08:11:34.797Z,15.64
2022-10-21T08:14:03.106Z,15.61
2022-10-21T08:16:30.789Z,15.75
2022-10-21T08:19:00.381Z,15.74
2022-10-21T08:21:28.074Z,15.71
2022-10-21T08:23:55.748Z,15.80
2022-10-21T08:26:23.372Z,15.84
2022-10-21T08:28:51.015Z,15.80
2022-10-21T08:31:21.017Z,15.85
2022-10-21T08:33:48.947Z,15.80
2022-10-21T08:36:20.016Z,15.64
2022-10-21T08:38:48.056Z,15.72
2022-10-21T08:41:36.998Z,15.70
2022-10-21T08:44:07.697Z,15.74
2022-10-21T08:46:39.905Z,15.74
2022-10-21T08:49:14.192Z,15.71
2022-10-21T08:51:48.774Z,15.68
2022-10-21T08:54:21.878Z,15.78
2022-10-21T08:56:52.595Z,15.84
2022-10-21T08:59:23.124Z,15.84
2022-10-21T09:01:57.302Z,15.79
2022-10-21T09:04:33.041Z,15.78
2022-10-21T09:07:12.986Z,15.83
2022-10-21T09:09:49.568Z,15.57
2022-10-21T09:12:24.172Z,15.95
2022-10-21T09:15:14.888Z,15.93
2022-10-21T09:17:54.989Z,15.91
2022-10-21T09:20:32.421Z,16.05
2022-10-21T09:23:13.489Z,15.98
2022-10-21T09:25:49.246Z,15.92
2022-10-21T09:28:17.423Z,16.01
2022-10-21T09:30:46.092Z,16.01
2022-10-21T09:33:20.903Z,15.97
2022-10-21T09:35:51.840Z,16.08
2022-10-21T09:38:26.895Z,16.10
2022-10-21T09:41:03.147Z,16.00
2022-10-21T09:43:31.546Z,15.85
2022-10-21T09:45:59.531Z,15.89
2022-10-21T09:48:39.250Z,15.87
2022-10-21T09:51:17.245Z,15.88
2022-10-21T09:53:53.866Z,15.69
2022-10-21T09:56:25.403Z,15.77
2022-10-21T09:59:07.570Z,15.67
2022-10-21T10:01:37.856Z,15.69
2022-10-21T10:04:11.985Z,15.50
2022-10-21T10:06:41.563Z,15.59
2022-10-21T10:09:15.613Z,15.49
2022-10-21T10:11:53.602Z,15.54
2022-10-21T10:14:38.274Z,15.52
2022-10-21T10:17:30.283Z,15.54
2022-10-21T10:20:17.786Z,15.53
2022-10-21T10:22:47.749Z,15.52
2022-10-21T10:25:24.049Z,15.61
2022-10-21T10:27:54.279Z,15.41
2022-10-21T10:30:22.898Z,15.48
2022-10-21T10:32:52.249Z,15.35
2022-10-21T10:35:29.315Z,15.50
2022-10-21T10:37:58.474Z,15.50
2022-10-21T10:40:32.429Z,15.44
2022-10-21T10:43:04.718Z,15.55
2022-10-21T10:45:32.532Z,15.57
2022-10-21T10:48:04.633Z,15.55
2022-10-21T10:50:43.269Z,15.76
2022-10-21T10:53:23.306Z,15.77
2022-10-21T10:56:00.727Z,15.84
2022-10-21T10:58:32.802Z,15.93
2022-10-21T11:01:04.400Z,16.02
2022-10-21T11:03:41.254Z,16.04
2022-10-21T11:06:16.481Z,16.22
2022-10-21T11:08:48.630Z,16.33
2022-10-21T11:11:24.595Z,16.43
2022-10-21T11:13:52.831Z,16.37
2022-10-21T11:16:40.783Z,16.30
2022-10-21T11:19:27.957Z,16.31
2022-10-21T11:22:05.140Z,16.36
2022-10-21T11:25:02.487Z,16.21
2022-10-21T11:27:44.435Z,16.21
2022-10-21T11:30:15.787Z,16.22
2022-10-21T11:32:59.082Z,16.43
2022-10-21T11:35:37.457Z,16.46
2022-10-21T11:38:22.990Z,16.55
2022-10-21T11:40:55.513Z,16.61
2022-10-21T11:43:36.258Z,16.66
2022-10-21T11:46:12.114Z,16.45
2022-10-21T11:48:53.342Z,16.57
2022-10-21T11:51:36.061Z,16.73
2022-10-21T11:54:20.035Z,16.62
2022-10-21T11:56:54.154Z,16.80
2022-10-21T11:59:34.661Z,16.74
2022-10-21T12:02:12.593Z,16.73
2022-10-21T12:04:48.929Z,16.68
2022-10-21T12:07:42.597Z,16.64
2022-10-21T12:10:15.862Z,16.60
2022-10-21T12:12:47.474Z,16.78
2022-10-21T12:15:20.624Z,16.84
2022-10-21T12:17:49.740Z,16.78
2022-10-21T12:20:23.926Z,16.90
2022-10-21T12:22:54.240Z,16.85
2022-10-21T12:25:29.068Z,16.92
2022-10-21T12:28:04.323Z,16.94
2022-10-21T12:30:39.619Z,16.98
2022-10-21T12:33:17.999Z,16.82
2022-10-21T12:35:50.282Z,17.17
2022-10-21T12:38:27.034Z,17.36
2022-10-21T12:41:22.237Z,17.40
2022-10-21T12:43:54.761Z,17.82
2022-10-21T12:46:28.986Z,17.83
2022-10-21T12:48:57.896Z,18.02
2022-10-21T12:51:28.989Z,17.99
2022-10-21T12:53:58.996Z,17.82
2022-10-21T12:56:31.200Z,17.86
2022-10-21T12:59:03.390Z,17.76
2022-10-21T13:01:38.653Z,17.93
2022-10-21T13:04:26.854Z,17.87
2022-10-21T13:06:56.576Z,17.74
2022-10-21T13:09:36.410Z,17.49
2022-10-21T13:12:14.715Z,17.62
2022-10-21T13:14:45.462Z,17.82
2022-10-21T13:17:46.754Z,17.65
2022-10-21T13:20:48.287Z,17.86
2022-10-21T13:23:32.287Z,17.95
2022-10-21T13:26:24.020Z,17.96
2022-10-21T13:29:06.607Z,17.97
2022-10-21T13:31:34.775Z,17.60
2022-10-21T13:34:04.297Z,17.65
2022-10-21T13:36:39.756Z,17.43
2022-10-21T13:39:23.621Z,17.38
2022-10-21T13:42:03.513Z,17.35
2022-10-21T13:44:35.692Z,17.28
2022-10-21T13:47:28.792Z,16.80
2022-10-21T13:50:14.164Z,17.21
2022-10-21T13:52:44.017Z,17.24
2022-10-21T13:55:20.665Z,17.25
2022-10-21T13:57:49.296Z,17.18
2022-10-21T14:00:21.829Z,17.12
2022-10-21T14:02:50.856Z,17.22
2022-10-21T14:05:31.567Z,17.21
2022-10-21T14:07:59.338Z,17.16
2022-10-21T14:10:28.641Z,17.28
2022-10-21T14:15:38.698Z,17.43
2022-10-21T14:18:07.165Z,17.45
2022-10-21T14:20:38.847Z,17.38
2022-10-21T14:23:09.555Z,17.16
2022-10-21T14:25:37.556Z,17.34
2022-10-21T14:28:05.989Z,17.32
2022-10-21T14:30:37.016Z,17.38
2022-10-21T14:33:08.409Z,17.31
2022-10-21T14:35:37.380Z,17.43
2022-10-21T14:38:24.814Z,17.32
2022-10-21T14:40:59.876Z,17.28
2022-10-21T14:43:33.526Z,17.36
2022-10-21T14:46:01.942Z,17.11
2022-10-21T14:48:33.001Z,17.15
2022-10-21T14:51:04.355Z,16.80
2022-10-21T14:53:35.320Z,17.00
2022-10-21T14:56:05.695Z,16.94
2022-10-21T14:58:36.214Z,17.06
2022-10-21T15:01:12.187Z,17.05
2022-10-21T15:03:42.227Z,16.88
2022-10-21T15:06:14.021Z,17.06
2022-10-21T15:08:43.468Z,17.14
2022-10-21T15:11:23.357Z,16.81
2022-10-21T15:13:58.718Z,16.62
2022-10-21T15:16:30.315Z,16.88
2022-10-21T15:18:58.741Z,17.01
2022-10-21T15:21:36.172Z,17.01
2022-10-21T15:24:05.306Z,16.65
2022-10-21T15:26:37.006Z,16.92
2022-10-21T15:29:14.073Z,16.84
2022-10-21T15:31:41.896Z,16.82
2022-10-21T15:34:13.943Z,16.95
2022-10-21T15:36:43.928Z,16.78
2022-10-21T15:39:12.129Z,16.93
2022-10-21T15:41:40.456Z,16.78
2022-10-21T15:44:18.950Z,16.77
2022-10-21T15:46:47.275Z,16.71
2022-10-21T15:49:18.564Z,16.69
2022-10-21T15:51:48.738Z,16.63
2022-10-21T15:54:17.918Z,16.76
2022-10-21T15:56:47.378Z,16.67
2022-10-21T15:59:18.534Z,16.63
2022-10-21T16:01:47.291Z,16.64
2022-10-21T16:04:14.925Z,16.70
2022-10-21T16:06:47.642Z,16.65
2022-10-21T16:09:20.591Z,16.66
2022-10-21T16:11:59.014Z,16.65
2022-10-21T16:14:29.592Z,16.55
2022-10-21T16:16:58.347Z,16.43
2022-10-21T16:19:25.978Z,16.48
2022-10-21T16:21:53.621Z,16.39
2022-10-21T16:24:22.753Z,16.04
2022-10-21T16:26:50.986Z,16.29
2022-10-21T16:29:21.087Z,16.28
2022-10-21T16:31:48.972Z,16.28
2022-10-21T16:34:16.632Z,16.27
2022-10-21T16:36:44.331Z,16.21
2022-10-21T16:39:14.615Z,16.33
2022-10-21T16:41:43.541Z,16.18
2022-10-21T16:44:11.182Z,16.19
2022-10-21T16:46:41.392Z,16.21
2022-10-21T16:49:13.451Z,16.20
2022-10-21T16:51:42.029Z,16.29
2022-10-21T16:54:10.919Z,16.24
2022-10-21T16:56:38.504Z,16.03
2022-10-21T16:59:07.846Z,16.15
2022-10-21T17:01:35.645Z,16.09
2022-10-21T17:04:03.375Z,16.12
2022-10-21T17:06:30.982Z,16.05
2022-10-21T17:08:58.989Z,16.24
2022-10-21T17:11:32.888Z,16.10
2022-10-21T17:14:01.389Z,16.02
2022-10-21T17:16:30.453Z,16.15
2022-10-21T17:18:58.203Z,16.12
2022-10-21T17:21:27.964Z,16.11
2022-10-21T17:23:56.411Z,16.13
2022-10-21T17:26:24.412Z,15.96
2022-10-21T17:28:52.204Z,16.08
2022-10-21T17:31:21.751Z,16.02
2022-10-21T17:33:52.089Z,16.05
2022-10-21T17:36:21.304Z,15.97
2022-10-21T17:38:48.928Z,15.80
2022-10-21T17:41:19.402Z,15.69
2022-10-21T17:43:47.967Z,15.69
2022-10-21T17:46:18.491Z,15.49
2022-10-21T17:48:46.337Z,15.57
2022-10-21T17:51:15.418Z,15.79
2022-10-21T17:53:43.140Z,15.78
2022-10-21T17:56:12.940Z,15.74
2022-10-21T17:58:40.593Z,15.77
2022-10-21T18:01:09.266Z,15.64
2022-10-21T18:03:37.026Z,15.56
2022-10-21T18:06:06.688Z,15.43
2022-10-21T18:08:35.853Z,15.07
2022-10-21T18:11:06.836Z,15.22
2022-10-21T18:13:35.059Z,15.17
2022-10-21T18:16:04.218Z,15.16
2022-10-21T18:18:32.335Z,15.07
2022-10-21T18:21:03.636Z,15.03
2022-10-21T18:23:31.538Z,15.01
2022-10-21T18:26:04.729Z,15.02
2022-10-21T18:28:32.649Z,14.89
2022-10-21T18:31:00.516Z,14.69
2022-10-21T18:33:28.138Z,14.79
2022-10-21T18:35:55.779Z,14.70
2022-10-21T18:38:23.707Z,14.69
2022-10-21T18:40:56.640Z,14.75
2022-10-21T18:43:38.420Z,14.90
2022-10-21T18:46:06.360Z,14.75
2022-10-21T18:48:34.030Z,14.95
2022-10-21T18:51:06.353Z,15.10
2022-10-21T18:53:34.864Z,15.17
2022-10-21T18:56:05.068Z,15.31
2022-10-21T18:58:33.170Z,15.28
2022-10-21T19:01:02.367Z,15.19
2022-10-21T19:03:30.038Z,15.42
2022-10-21T19:05:57.661Z,15.39
2022-10-21T19:08:25.408Z,15.34
2022-10-21T19:10:53.012Z,15.35
2022-10-21T19:13:20.627Z,15.24
2022-10-21T19:15:48.283Z,15.13
2022-10-21T19:18:17.228Z,15.02
2022-10-21T19:20:44.829Z,14.93
2022-10-21T19:23:12.469Z,14.98
2022-10-21T19:25:40.063Z,14.79
2022-10-21T19:28:07.688Z,14.78
2022-10-21T19:30:35.425Z,14.77
2022-10-21T19:33:03.006Z,14.82
2022-10-21T19:35:32.295Z,14.83
2022-10-21T19:38:03.140Z,15.02
2022-10-21T19:40:32.980Z,15.01
2022-10-21T19:43:00.559Z,14.96
2022-10-21T19:45:28.140Z,15.08
2022-10-21T19:47:55.738Z,15.13
2022-10-21T19:50:23.321Z,15.10
2022-10-21T19:52:52.286Z,15.13
2022-10-21T19:55:20.073Z,15.15
2022-10-21T19:57:47.718Z,15.09
2022-10-21T20:00:15.381Z,15.24
2022-10-21T20:02:42.905Z,15.29
2022-10-21T20:05:31.452Z,15.23
2022-10-21T20:08:20.657Z,15.09
2022-10-21T20:11:11.091Z,15.02
2022-10-21T20:13:59.642Z,14.90
2022-10-21T20:16:50.104Z,14.92
2022-10-21T20:19:38.073Z,14.82
2022-10-21T20:22:25.989Z,14.90
2022-10-21T20:25:15.232Z,14.77
2022-10-21T20:28:03.087Z,14.76
2022-10-21T20:31:02.076Z,14.68
2022-10-21T20:33:51.305Z,14.59
2022-10-21T20:36:39.221Z,14.53
2022-10-21T20:39:27.349Z,14.52
2022-10-21T20:42:16.671Z,14.58
2022-10-21T20:45:05.157Z,14.65
2022-10-21T20:47:53.077Z,14.87
2022-10-21T20:50:40.994Z,15.02
2022-10-21T20:53:31.198Z,15.04
2022-10-21T20:56:19.456Z,15.10
2022-10-21T20:59:10.501Z,14.92
2022-10-21T21:01:58.444Z,15.20
2022-10-21T21:04:46.301Z,15.33
2022-10-21T21:07:34.504Z,15.52
2022-10-21T21:10:22.421Z,15.67
2022-10-21T21:13:10.309Z,15.72
2022-10-21T21:16:07.535Z,15.81
2022-10-21T21:18:57.130Z,16.00
2022-10-21T21:21:44.988Z,16.16
2022-10-21T21:24:32.923Z,15.96
2022-10-21T21:27:20.790Z,16.02
2022-10-21T21:30:10.006Z,15.77
2022-10-21T21:32:59.210Z,16.07
2022-10-21T21:35:47.118Z,16.22
2022-10-21T21:38:35.260Z,16.26
2022-10-21T21:41:24.091Z,16.09
2022-10-21T21:44:11.975Z,16.11
2022-10-21T21:46:59.882Z,16.32
2022-10-21T21:49:49.085Z,16.25
2022-10-21T21:52:37.570Z,16.11
2022-10-21T21:55:25.445Z,16.13
2022-10-21T21:58:13.780Z,16.11
2022-10-21T22:01:09.714Z,16.27
2022-10-21T22:03:58.724Z,16.21
2022-10-21T22:06:47.936Z,16.03
2022-10-21T22:09:35.849Z,16.10
2022-10-21T22:12:23.766Z,16.14
2022-10-21T22:15:19.839Z,16.10
2022-10-21T22:18:20.689Z,16.15
2022-10-21T22:21:12.029Z,16.15
2022-10-21T22:24:01.256Z,16.13
2022-10-21T22:26:49.153Z,15.98
2022-10-21T22:29:37.005Z,16.12
2022-10-21T22:32:24.838Z,16.20
2022-10-21T22:35:12.721Z,16.25
2022-10-21T22:38:00.667Z,16.22
2022-10-21T22:40:53.335Z,16.23
2022-10-21T22:43:42.701Z,16.22
2022-10-21T22:46:34.545Z,16.26
2022-10-21T22:49:22.620Z,16.16
2022-10-21T22:52:10.557Z,16.28
2022-10-21T22:54:58.467Z,16.20
2022-10-21T22:57:48.667Z,16.16
2022-10-21T23:00:38.128Z,16.24
2022-10-21T23:03:26.188Z,16.15
2022-10-21T23:06:14.043Z,15.85
2022-10-21T23:09:03.190Z,15.98
2022-10-21T23:11:51.140Z,15.90
2022-10-21T23:14:40.346Z,15.93
2022-10-21T23:17:28.253Z,15.95
2022-10-21T23:20:16.335Z,15.88
2022-10-21T23:23:04.258Z,15.92
2022-10-21T23:25:52.134Z,15.94
2022-10-21T23:28:40.062Z,16.04
2022-10-21T23:31:29.277Z,16.08
2022-10-21T23:34:17.421Z,15.94
2022-10-21T23:37:05.430Z,15.92
2022-10-21T23:39:53.415Z,15.87
2022-10-21T23:42:42.885Z,15.91
2022-10-21T23:45:31.110Z,15.88
2022-10-21T23:48:20.294Z,16.04
2022-10-21T23:51:08.192Z,15.92
2022-10-21T23:53:56.626Z,16.03
2022-10-21T23:56:45.336Z,16.04
2022-10-21T23:59:34.234Z,16.00
